createdAt,value
2018-02-06T00:00:06.844Z,15.20
2018-02-06T00:02:34.918Z,15.00
2018-02-06T00:05:03.711Z,16.08
2018-02-06T00:07:32.178Z,14.13
2018-02-06T00:10:00.634Z,16.15
2018-02-06T00:12:29.013Z,15.10
2018-02-06T00:14:57.397Z,14.45
2018-02-06T00:17:25.809Z,15.20
2018-02-06T00:19:54.303Z,15.88
2018-02-06T00:22:22.683Z,16.10
2018-02-06T00:24:51.052Z,13.52
2018-02-06T00:27:19.426Z,16.23
2018-02-06T00:29:48.119Z,15.60
2018-02-06T00:32:16.512Z,15.73
2018-02-06T00:34:44.862Z,15.20
2018-02-06T00:37:13.265Z,13.85
2018-02-06T00:39:41.691Z,16.30
2018-02-06T00:42:10.290Z,16.00
2018-02-06T00:44:38.705Z,16.10
2018-02-06T00:47:07.054Z,15.73
2018-02-06T00:49:35.425Z,12.88
2018-02-06T00:52:03.785Z,15.57
2018-02-06T00:54:32.555Z,17.23
2018-02-06T00:57:01.045Z,15.38
2018-02-06T00:59:28.724Z,15.07
2018-02-06T01:01:56.957Z,15.60
2018-02-06T01:04:25.283Z,15.10
2018-02-06T01:06:53.707Z,16.30
2018-02-06T01:09:22.069Z,10.02
2018-02-06T01:11:50.430Z,13.82
2018-02-06T01:14:18.781Z,15.95
2018-02-06T01:16:47.141Z,14.80
2018-02-06T01:19:15.637Z,15.18
2018-02-06T01:21:44.025Z,15.52
2018-02-06T01:24:12.566Z,14.10
2018-02-06T01:26:40.968Z,15.35
2018-02-06T01:29:09.336Z,14.82
2018-02-06T01:31:38.061Z,15.60
2018-02-06T01:34:06.467Z,16.55
2018-02-06T01:36:34.821Z,16.23
2018-02-06T01:39:03.182Z,15.60
2018-02-06T01:41:31.582Z,15.45
2018-02-06T01:44:00.258Z,15.38
2018-02-06T01:46:28.647Z,15.73
2018-02-06T01:48:57.078Z,16.75
2018-02-06T01:51:25.463Z,18.08
2018-02-06T01:53:53.847Z,16.50
2018-02-06T01:56:22.216Z,15.70
2018-02-06T01:58:50.594Z,15.45
2018-02-06T02:01:19.064Z,17.33
2018-02-06T02:03:47.441Z,16.10
2018-02-06T02:06:15.822Z,16.20
2018-02-06T02:08:44.224Z,17.08
2018-02-06T02:11:12.581Z,15.70
2018-02-06T02:13:41.004Z,15.75
2018-02-06T02:16:09.391Z,16.27
2018-02-06T02:18:37.787Z,15.40
2018-02-06T02:21:06.249Z,14.98
2018-02-06T02:23:34.614Z,15.52
2018-02-06T02:26:03.029Z,14.00
2018-02-06T02:28:31.415Z,16.70
2018-02-06T02:30:59.758Z,17.35
2018-02-06T02:33:28.157Z,16.30
2018-02-06T02:35:56.549Z,17.20
2018-02-06T02:38:24.975Z,17.25
2018-02-06T02:40:53.363Z,14.82
2018-02-06T04:39:41.730Z,16.70
2018-02-06T04:42:10.129Z,14.95
2018-02-06T04:44:38.563Z,15.02
2018-02-06T04:47:06.913Z,14.85
2018-02-06T04:49:35.280Z,15.13
2018-02-06T04:52:03.646Z,15.50
2018-02-06T04:54:31.999Z,16.12
2018-02-06T04:57:00.350Z,16.90
2018-02-06T04:59:28.725Z,16.52
2018-02-06T05:01:57.090Z,15.27
2018-02-06T05:04:25.466Z,17.15
2018-02-06T05:06:53.931Z,14.73
2018-02-06T05:09:22.327Z,17.05
2018-02-06T05:11:50.718Z,16.27
2018-02-06T05:14:19.086Z,17.70
2018-02-06T05:16:47.447Z,17.05
2018-02-06T05:19:15.883Z,16.45
2018-02-06T05:21:44.259Z,17.15
2018-02-06T05:24:12.653Z,16.45
2018-02-06T05:26:41.070Z,15.05
2018-02-06T05:29:09.450Z,16.10
2018-02-06T05:31:37.907Z,17.10
2018-02-06T05:34:06.280Z,14.85
2018-02-06T05:36:34.646Z,16.23
2018-02-06T05:39:03.002Z,16.15
2018-02-06T05:41:31.403Z,14.40
2018-02-06T05:43:59.824Z,14.50
2018-02-06T05:46:28.313Z,15.52
2018-02-06T05:48:56.679Z,16.65
2018-02-06T05:51:25.079Z,15.05
2018-02-06T05:53:53.492Z,16.80
2018-02-06T05:56:21.925Z,14.95
2018-02-06T05:58:50.304Z,16.02
2018-02-06T06:01:18.690Z,15.95
2018-02-06T06:03:47.078Z,16.60
2018-02-06T06:06:15.448Z,16.80
2018-02-06T06:08:43.903Z,14.87
2018-02-06T06:11:12.288Z,15.65
2018-02-06T06:13:40.770Z,15.50
2018-02-06T06:16:09.120Z,15.20
2018-02-06T06:18:37.494Z,15.50
2018-02-06T06:21:05.895Z,17.45
2018-02-06T06:23:34.368Z,15.65
2018-02-06T06:26:02.781Z,16.37
2018-02-06T06:28:31.174Z,17.15
2018-02-06T06:30:59.568Z,17.48
2018-02-06T06:33:28.015Z,17.02
2018-02-06T06:35:56.393Z,17.30
2018-02-06T06:38:24.763Z,16.40
2018-02-06T06:40:53.159Z,16.15
2018-02-06T06:43:21.551Z,15.88
2018-02-06T06:45:50.008Z,18.42
2018-02-06T06:48:18.391Z,16.80
2018-02-06T06:50:46.813Z,17.77
2018-02-06T06:53:15.199Z,17.73
2018-02-06T06:55:43.665Z,17.17
2018-02-06T06:58:12.089Z,15.18
2018-02-06T07:00:40.513Z,17.23
2018-02-06T07:03:08.862Z,18.23
2018-02-06T07:05:37.249Z,16.35
2018-02-06T07:08:05.602Z,20.25
2018-02-06T07:10:34.061Z,16.12
2018-02-06T07:13:02.453Z,17.27
2018-02-06T07:15:30.823Z,16.33
2018-02-06T07:17:59.178Z,16.92
2018-02-06T07:20:27.552Z,17.58
2018-02-06T07:22:56.005Z,15.73
2018-02-06T07:25:24.387Z,15.85
2018-02-06T07:27:52.769Z,15.45
2018-02-06T07:30:21.173Z,16.52
2018-02-06T07:32:49.560Z,17.45
2018-02-06T07:35:17.963Z,17.20
2018-02-06T07:37:46.381Z,15.35
2018-02-06T07:40:14.809Z,17.67
2018-02-06T07:42:43.173Z,18.70
2018-02-06T07:45:11.545Z,15.35
2018-02-06T07:47:39.954Z,15.13
2018-02-06T07:50:08.391Z,16.35
2018-02-06T07:52:36.838Z,15.93
2018-02-06T07:55:05.390Z,14.50
2018-02-06T07:57:33.796Z,15.70
2018-02-06T08:00:02.227Z,16.77
2018-02-06T08:02:30.649Z,14.60
2018-02-06T08:04:59.434Z,15.40
2018-02-06T08:07:27.782Z,15.00
2018-02-06T08:09:56.178Z,14.90
2018-02-06T08:12:24.592Z,17.33
2018-02-06T08:14:52.958Z,14.13
2018-02-06T08:17:21.430Z,13.85
2018-02-06T08:19:49.850Z,12.93
2018-02-06T08:22:18.205Z,13.50
2018-02-06T08:24:46.676Z,13.05
2018-02-06T08:27:15.143Z,15.70
2018-02-06T08:29:43.607Z,14.40
2018-02-06T08:32:11.991Z,15.65
2018-02-06T08:34:40.373Z,14.55
2018-02-06T08:37:08.787Z,13.55
2018-02-06T08:39:37.271Z,14.25
2018-02-06T08:42:05.734Z,15.10
2018-02-06T08:44:34.210Z,14.48
2018-02-06T08:47:02.609Z,13.25
2018-02-06T08:49:31.010Z,14.10
2018-02-06T08:51:59.655Z,12.60
2018-02-06T08:54:28.152Z,13.65
2018-02-06T08:56:56.562Z,13.98
2018-02-06T08:59:24.960Z,13.80
2018-02-06T09:01:53.399Z,14.07
2018-02-06T09:04:21.857Z,13.73
2018-02-06T09:06:50.305Z,13.98
2018-02-06T09:09:18.882Z,13.75
2018-02-06T09:11:47.278Z,14.85
2018-02-06T09:14:15.661Z,13.30
2018-02-06T09:16:44.054Z,12.88
2018-02-06T09:19:12.503Z,14.05
2018-02-06T09:21:40.900Z,13.80
2018-02-06T09:24:10.190Z,15.38
2018-02-06T09:26:38.578Z,14.10
2018-02-06T09:29:07.053Z,14.23
2018-02-06T09:31:35.524Z,13.02
2018-02-06T09:34:03.905Z,14.43
2018-02-06T09:36:32.330Z,15.43
2018-02-06T09:39:00.734Z,15.35
2018-02-06T09:41:29.113Z,14.07
2018-02-06T09:43:57.571Z,13.98
2018-02-06T09:46:25.973Z,14.98
2018-02-06T09:48:54.375Z,12.75
2018-02-06T09:51:22.755Z,14.45
2018-02-06T09:53:51.146Z,12.93
2018-02-06T09:56:19.725Z,13.62
2018-02-06T09:58:48.125Z,13.60
2018-02-06T10:01:16.581Z,14.23
2018-02-06T10:03:44.990Z,13.00
2018-02-06T10:06:13.383Z,13.00
2018-02-06T10:08:41.857Z,13.43
2018-02-06T10:11:10.245Z,13.50
2018-02-06T10:13:38.642Z,13.02
2018-02-06T10:16:07.064Z,12.10
2018-02-06T10:18:35.441Z,13.10
2018-02-06T10:21:03.908Z,12.20
2018-02-06T10:23:32.287Z,13.10
2018-02-06T10:26:00.678Z,13.57
2018-02-06T10:28:29.061Z,12.88
2018-02-06T10:30:57.490Z,13.65
2018-02-06T10:33:26.058Z,13.27
2018-02-06T10:35:54.469Z,13.05
2018-02-06T10:38:22.852Z,14.25
2018-02-06T10:40:51.250Z,14.65
2018-02-06T10:43:19.649Z,14.68
2018-02-06T10:45:48.157Z,12.88
2018-02-06T10:48:16.546Z,13.60
2018-02-06T10:50:44.941Z,13.30
2018-02-06T10:53:13.334Z,16.85
2018-02-06T10:55:41.723Z,11.32
2018-02-06T10:58:10.180Z,15.35
2018-02-06T11:00:38.582Z,13.60
2018-02-06T11:03:06.986Z,13.05
2018-02-06T11:05:35.458Z,13.25
2018-02-06T11:08:03.835Z,12.35
2018-02-06T11:10:32.410Z,13.93
2018-02-06T11:13:00.914Z,15.05
2018-02-06T11:15:29.310Z,14.35
2018-02-06T11:17:57.685Z,13.85
2018-02-06T11:20:26.161Z,13.85
2018-02-06T11:22:54.647Z,12.90
2018-02-06T11:25:23.045Z,12.73
2018-02-06T11:27:51.431Z,12.60
2018-02-06T11:30:19.811Z,12.52
2018-02-06T11:32:48.246Z,13.18
2018-02-06T11:35:16.723Z,13.40
2018-02-06T11:37:45.486Z,12.27
2018-02-06T11:40:13.938Z,13.30
2018-02-06T11:42:43.018Z,13.25
2018-02-06T11:45:11.482Z,13.55
2018-02-06T11:47:39.876Z,14.35
2018-02-06T11:50:08.331Z,12.93
2018-02-06T11:52:37.637Z,14.93
2018-02-06T11:55:06.205Z,13.80
2018-02-06T11:57:34.596Z,14.18
2018-02-06T12:00:02.999Z,13.45
2018-02-06T12:02:31.402Z,15.32
2018-02-06T12:04:59.946Z,14.15
2018-02-06T12:07:28.334Z,13.65
2018-02-06T12:09:56.808Z,13.88
2018-02-06T12:12:25.194Z,15.32
2018-02-06T12:14:53.588Z,15.38
2018-02-06T12:17:22.151Z,14.02
2018-02-06T12:19:50.521Z,15.15
2018-02-06T12:22:18.919Z,15.48
2018-02-06T12:24:47.419Z,16.50
2018-02-06T12:27:15.817Z,14.30
2018-02-06T12:29:44.263Z,15.70
2018-02-06T12:32:12.737Z,15.05
2018-02-06T12:34:41.128Z,15.88
2018-02-06T12:37:09.524Z,15.77
2018-02-06T12:39:43.737Z,16.48
2018-02-06T12:42:12.214Z,14.80
2018-02-06T12:44:40.643Z,15.50
2018-02-06T12:47:09.163Z,16.05
2018-02-06T12:49:37.618Z,16.33
2018-02-06T12:52:06.017Z,16.50
2018-02-06T12:54:34.501Z,15.00
2018-02-06T12:57:02.895Z,14.98
2018-02-06T13:01:59.686Z,15.27
2018-02-06T13:04:29.164Z,14.82
2018-02-06T13:06:57.609Z,16.83
2018-02-06T13:09:26.050Z,14.90
2018-02-06T13:11:54.452Z,16.95
2018-02-06T13:14:22.852Z,16.15
2018-02-06T13:16:51.258Z,14.68
2018-02-06T13:19:19.817Z,16.80
2018-02-06T13:21:48.245Z,15.95
2018-02-06T13:24:16.633Z,14.43
2018-02-06T13:26:45.054Z,16.95
2018-02-06T13:29:13.529Z,16.98
2018-02-06T13:31:41.983Z,17.27
2018-02-06T13:34:10.381Z,18.55
2018-02-06T13:36:38.770Z,17.73
2018-02-06T13:39:07.170Z,17.85
2018-02-06T13:41:35.645Z,18.40
2018-02-06T13:44:04.102Z,17.08
2018-02-06T13:46:32.503Z,18.25
2018-02-06T13:49:01.009Z,20.05
2018-02-06T13:51:29.400Z,17.08
2018-02-06T13:53:57.776Z,17.67
2018-02-06T13:56:26.235Z,17.85
2018-02-06T13:58:54.664Z,16.95
2018-02-06T14:01:23.110Z,17.60
2018-02-06T14:03:51.501Z,17.67
2018-02-06T14:06:19.899Z,17.45
2018-02-06T14:08:48.482Z,16.40
2018-02-06T14:11:16.881Z,16.90
2018-02-06T14:13:45.289Z,17.50
2018-02-06T14:16:13.678Z,16.48
2018-02-06T14:18:42.080Z,16.37
2018-02-06T14:21:10.710Z,18.75
2018-02-06T14:23:39.115Z,18.92
2018-02-06T14:26:07.622Z,17.83
2018-02-06T14:28:36.011Z,19.75
2018-02-06T14:31:04.412Z,19.05
2018-02-06T14:33:32.911Z,21.33
2018-02-06T14:36:01.296Z,20.40
2018-02-06T14:38:29.796Z,18.77
2018-02-06T14:40:58.467Z,19.60
2018-02-06T14:43:26.864Z,18.08
2018-02-06T14:45:55.361Z,20.08
2018-02-06T14:48:23.752Z,19.60
2018-02-06T14:50:52.181Z,20.75
2018-02-06T14:53:20.583Z,20.92
2018-02-06T14:55:49.030Z,20.80
2018-02-06T14:58:17.508Z,22.13
2018-02-06T15:00:45.927Z,21.75
2018-02-06T15:03:14.334Z,20.75
2018-02-06T15:05:42.746Z,20.95
2018-02-06T15:08:11.171Z,21.45
2018-02-06T15:10:39.643Z,20.65
2018-02-06T15:13:08.033Z,20.70
2018-02-06T15:15:36.426Z,21.48
2018-02-06T15:18:04.811Z,18.90
2018-02-06T15:20:33.207Z,23.12
2018-02-06T15:23:01.730Z,20.92
2018-02-06T15:25:30.130Z,19.90
2018-02-06T15:27:58.550Z,21.50
2018-02-06T15:30:26.942Z,20.58
2018-02-06T15:32:55.342Z,21.40
2018-02-06T15:35:23.795Z,21.55
2018-02-06T15:37:52.214Z,22.42
2018-02-06T15:40:20.596Z,20.23
2018-02-06T15:42:49.008Z,21.52
2018-02-06T15:45:17.503Z,20.60
2018-02-06T15:47:46.024Z,19.40
2018-02-06T15:50:14.496Z,20.25
2018-02-06T15:52:42.949Z,21.50
2018-02-06T15:55:11.321Z,20.08
2018-02-06T15:57:39.719Z,20.90
2018-02-06T16:00:08.170Z,20.23
2018-02-06T16:02:36.587Z,20.50
2018-02-06T16:05:05.089Z,20.25
2018-02-06T16:07:33.479Z,20.60
2018-02-06T16:10:01.878Z,20.92
2018-02-06T16:12:30.422Z,21.48
2018-02-06T16:14:58.817Z,20.00
2018-02-06T16:17:27.215Z,21.23
2018-02-06T16:19:55.604Z,21.23
2018-02-06T16:22:23.996Z,20.00
2018-02-06T16:24:52.449Z,21.52
2018-02-06T16:27:20.826Z,20.42
2018-02-06T16:29:49.223Z,20.70
2018-02-06T16:32:17.627Z,21.52
2018-02-06T16:34:46.007Z,19.92
2018-02-06T16:37:14.457Z,22.50
2018-02-06T16:39:42.851Z,23.02
2018-02-06T16:42:11.233Z,21.48
2018-02-06T16:44:39.651Z,21.08
2018-02-06T16:47:08.029Z,20.85
2018-02-06T16:49:36.469Z,22.30
2018-02-06T16:52:04.865Z,22.15
2018-02-06T16:54:33.254Z,21.00
2018-02-06T16:57:03.486Z,21.00
2018-02-06T16:59:31.879Z,21.92
2018-02-06T17:02:00.325Z,23.10
2018-02-06T17:04:28.715Z,22.15
2018-02-06T17:06:57.243Z,21.70
2018-02-06T17:09:25.972Z,21.73
2018-02-06T17:14:29.715Z,21.95
2018-02-06T17:16:58.076Z,22.65
2018-02-06T17:19:26.530Z,21.55
2018-02-06T17:21:54.930Z,21.67
2018-02-06T17:24:23.613Z,22.42
2018-02-06T17:26:52.036Z,23.15
2018-02-06T17:29:20.816Z,20.52
2018-02-06T17:31:49.217Z,22.10
2018-02-06T17:34:17.743Z,23.20
2018-02-06T17:36:46.149Z,22.45
2018-02-06T17:39:36.337Z,22.30
2018-02-06T17:42:04.885Z,22.08
2018-02-06T17:44:33.417Z,24.80
2018-02-06T17:47:01.821Z,23.20
2018-02-06T17:49:30.235Z,21.42
2018-02-06T17:51:58.637Z,23.08
2018-02-06T17:54:27.043Z,24.48
2018-02-06T17:56:55.501Z,22.83
2018-02-06T17:59:23.884Z,22.42
2018-02-06T18:01:52.267Z,23.95
2018-02-06T18:04:20.660Z,22.92
2018-02-06T18:06:49.054Z,24.12
2018-02-06T18:09:17.801Z,22.80
2018-02-06T18:11:46.194Z,23.52
2018-02-06T18:14:14.575Z,23.25
2018-02-06T18:16:42.964Z,22.05
2018-02-06T18:19:11.376Z,22.52
2018-02-06T18:21:39.886Z,23.10
2018-02-06T18:24:08.276Z,26.42
2018-02-06T18:26:36.706Z,24.45
2018-02-06T18:29:05.098Z,22.00
2018-02-06T18:31:33.499Z,24.67
2018-02-06T18:34:02.013Z,23.50
2018-02-06T18:36:30.399Z,24.83
2018-02-06T18:38:58.791Z,24.25
2018-02-06T18:41:27.190Z,25.35
2018-02-06T18:43:56.123Z,24.92
2018-02-06T18:46:25.241Z,26.02
2018-02-06T18:48:53.908Z,25.37
2018-02-06T18:51:22.612Z,24.50
2018-02-06T18:53:52.181Z,22.30
2018-02-06T18:56:20.822Z,23.87
2018-02-06T18:58:49.588Z,24.60
2018-02-06T19:01:18.139Z,25.30
2018-02-06T19:03:47.837Z,24.02
2018-02-06T19:06:17.133Z,24.75
2018-02-06T19:08:45.894Z,26.37
2018-02-06T19:11:14.736Z,24.33
2018-02-06T19:13:43.563Z,24.63
2018-02-06T19:16:12.431Z,25.35
2018-02-06T19:18:41.131Z,26.30
2018-02-06T19:21:09.533Z,26.90
2018-02-06T19:23:38.080Z,26.70
2018-02-06T19:26:06.465Z,24.58
2018-02-06T19:28:34.866Z,26.92
2018-02-06T19:31:03.250Z,25.42
2018-02-06T19:33:31.621Z,26.98
2018-02-06T19:36:00.090Z,25.08
2018-02-06T19:38:28.648Z,26.65
2018-02-06T19:40:57.143Z,26.83
2018-02-06T19:43:25.534Z,27.05
2018-02-06T19:45:53.934Z,24.80
2018-02-06T19:48:22.469Z,27.35
2018-02-06T19:50:51.192Z,26.27
2018-02-06T19:53:19.619Z,28.00
2018-02-06T19:55:48.032Z,27.48
2018-02-06T19:58:16.433Z,26.90
2018-02-06T20:00:45.201Z,26.65
2018-02-06T20:03:13.589Z,27.05
2018-02-06T20:05:42.095Z,28.70
2018-02-06T20:08:10.498Z,28.85
2018-02-06T20:10:38.895Z,29.08
2018-02-06T20:13:07.359Z,27.60
2018-02-06T20:15:35.894Z,27.60
2018-02-06T20:18:04.284Z,27.58
2018-02-06T20:20:32.672Z,26.45
2018-02-06T20:23:01.073Z,27.55
2018-02-06T20:25:29.822Z,26.85
2018-02-06T20:27:58.209Z,27.90
2018-02-06T20:30:26.636Z,26.83
2018-02-06T20:32:55.010Z,26.42
2018-02-06T20:35:23.417Z,28.38
2018-02-06T20:37:51.881Z,26.30
2018-02-06T20:40:20.287Z,25.83
2018-02-06T20:42:48.674Z,26.87
2018-02-06T20:45:17.063Z,27.65
2018-02-06T20:47:45.447Z,27.33
2018-02-06T20:50:15.788Z,26.12
2018-02-06T20:52:44.178Z,27.75
2018-02-06T21:37:37.342Z,26.52
2018-02-06T21:40:05.778Z,27.30
2018-02-06T21:42:34.226Z,29.30
2018-02-06T21:45:02.605Z,30.05
2018-02-06T21:47:30.981Z,28.90
2018-02-06T21:49:59.713Z,31.55
2018-02-06T21:52:28.112Z,29.92
2018-02-06T21:54:56.513Z,30.30
2018-02-06T21:57:25.011Z,30.58
2018-02-06T21:59:53.406Z,27.90
2018-02-06T22:02:21.874Z,29.58
2018-02-06T22:04:50.282Z,30.50
2018-02-06T22:07:18.662Z,31.42
2018-02-06T22:09:47.050Z,29.48
2018-02-06T22:12:15.525Z,30.05
2018-02-06T22:14:43.995Z,29.58
2018-02-06T22:17:12.386Z,30.45
2018-02-06T22:19:40.780Z,31.42
2018-02-06T22:22:09.190Z,31.70
2018-02-06T22:24:37.601Z,32.20
2018-02-06T22:27:06.143Z,30.27
2018-02-06T22:32:27.330Z,31.50
2018-02-06T22:34:55.757Z,33.15
2018-02-06T22:37:24.166Z,32.33
2018-02-06T22:39:52.616Z,32.97
2018-02-06T22:42:21.012Z,31.58
2018-02-06T22:44:49.403Z,30.42
2018-02-06T22:47:17.792Z,29.85
2018-02-06T22:49:46.323Z,31.40
2018-02-06T22:52:14.818Z,31.00
2018-02-06T22:54:43.206Z,30.42
2018-02-06T22:57:11.600Z,29.27
2018-02-06T22:59:40.076Z,29.15
2018-02-06T23:02:08.466Z,29.20
2018-02-06T23:04:36.938Z,30.58
2018-02-06T23:07:05.341Z,33.55
2018-02-06T23:09:33.725Z,30.15
2018-02-06T23:12:02.231Z,28.30
2018-02-06T23:14:30.635Z,31.45
2018-02-06T23:16:59.276Z,30.67
2018-02-06T23:19:27.733Z,28.67
2018-02-06T23:21:56.116Z,31.02
2018-02-06T23:24:24.594Z,30.42
2018-02-06T23:26:53.001Z,33.10
2018-02-06T23:29:21.587Z,32.20
2018-02-06T23:31:49.987Z,35.42
2018-02-06T23:34:18.460Z,30.95
2018-02-06T23:36:46.899Z,31.85
2018-02-06T23:39:15.281Z,33.67
2018-02-06T23:41:43.721Z,32.33
2018-02-06T23:44:12.118Z,32.13
2018-02-06T23:46:41.653Z,31.73
2018-02-06T23:49:10.133Z,32.22
2018-02-06T23:51:38.521Z,32.95
2018-02-06T23:54:06.964Z,30.90
2018-02-06T23:56:35.748Z,33.10
2018-02-06T23:59:04.114Z,29.50
